Time;durP1;ratioP1;P1;durP2;ratioP2;P2;SDS_P1;SDS_P2;PMS_P1;PMS_P2;Temp;Humidity;BMP_temperature;BMP_pressure;BME280_temperature;BME280_humidity;BME280_pressure;Samples;Min_cycle;Max_cycle;Signal;HPM_P1;HPM_P2
2022/09/02 00:01:25;;;;;;;5.30;4.80;;;;;;;;;;10341926;28;20069;-68
2022/09/02 00:06:23;;;;;;;7.88;4.93;;;;;;;;;;10345426;28;20068;-68
2022/09/02 00:11:26;;;;;;;7.82;4.68;;;;;;;;;;10343037;28;20110;-67
2022/09/02 00:16:25;;;;;;;5.75;4.95;;;;;;;;;;10343411;28;20068;-68
2022/09/02 00:21:24;;;;;;;6.50;5.20;;;;;;;;;;10342938;28;20071;-68
2022/09/02 00:26:24;;;;;;;5.97;5.43;;;;;;;;;;10342420;28;20076;-68
2022/09/02 00:31:23;;;;;;;7.00;6.30;;;;;;;;;;10340557;28;20106;-68
2022/09/02 00:36:22;;;;;;;10.32;6.72;;;;;;;;;;10348214;28;20614;-68
2022/09/02 00:41:21;;;;;;;8.65;6.28;;;;;;;;;;10338348;28;20044;-68
2022/09/02 00:46:23;;;;;;;11.00;6.68;;;;;;;;;;10356338;28;20309;-68
2022/09/02 00:51:22;;;;;;;7.15;6.45;;;;;;;;;;10328106;28;20048;-68
2022/09/02 00:56:23;;;;;;;8.20;6.60;;;;;;;;;;10348838;28;20059;-68
2022/09/02 01:01:23;;;;;;;9.18;6.13;;;;;;;;;;10355463;28;20043;-68
2022/09/02 01:06:23;;;;;;;10.15;6.13;;;;;;;;;;10355625;28;20509;-68
2022/09/02 01:11:21;;;;;;;8.02;6.05;;;;;;;;;;10330217;28;20161;-67
2022/09/02 01:16:23;;;;;;;7.97;6.22;;;;;;;;;;10337347;28;20481;-68
2022/09/02 01:21:23;;;;;;;10.52;6.47;;;;;;;;;;10325381;28;20051;-68
2022/09/02 01:26:23;;;;;;;7.45;6.25;;;;;;;;;;10339905;28;20090;-68
2022/09/02 01:31:22;;;;;;;7.00;6.30;;;;;;;;;;10339669;28;20120;-68
2022/09/02 01:36:21;;;;;;;7.13;6.43;;;;;;;;;;10342464;28;20083;-69
2022/09/02 01:41:19;;;;;;;9.18;6.32;;;;;;;;;;10341107;28;20068;-68
2022/09/02 01:46:19;;;;;;;6.15;5.55;;;;;;;;;;10341238;28;20066;-65
2022/09/02 01:51:18;;;;;;;14.45;5.88;;;;;;;;;;10350530;28;20095;-65
2022/09/02 01:56:17;;;;;;;11.65;5.93;;;;;;;;;;10331041;28;20082;-65
2022/09/02 02:01:15;;;;;;;10.52;5.65;;;;;;;;;;10345801;28;20047;-65
2022/09/02 02:06:17;;;;;;;9.45;6.30;;;;;;;;;;10346128;28;20048;-65
2022/09/02 02:11:18;;;;;;;9.10;7.13;;;;;;;;;;10330518;28;20075;-65
2022/09/02 02:16:20;;;;;;;8.85;6.53;;;;;;;;;;10347094;28;20517;-65
2022/09/02 02:21:20;;;;;;;8.80;6.38;;;;;;;;;;10347332;28;20091;-65
2022/09/02 02:26:21;;;;;;;7.13;6.43;;;;;;;;;;10349877;28;20089;-65
2022/09/02 02:31:19;;;;;;;12.45;6.90;;;;;;;;;;10324020;28;20044;-67
2022/09/02 02:36:20;;;;;;;11.38;7.10;;;;;;;;;;10339792;28;20079;-66
2022/09/02 02:41:19;;;;;;;7.32;6.18;;;;;;;;;;10327539;28;20036;-65
2022/09/02 02:46:18;;;;;;;8.70;6.57;;;;;;;;;;10346744;28;20453;-65
2022/09/02 02:51:16;;;;;;;9.70;6.53;;;;;;;;;;10351764;28;20056;-65
2022/09/02 02:56:17;;;;;;;14.20;6.47;;;;;;;;;;10341750;28;20506;-65
2022/09/02 03:01:16;;;;;;;11.48;5.90;;;;;;;;;;10357972;28;20071;-65
2022/09/02 03:06:14;;;;;;;9.52;6.28;;;;;;;;;;10335429;28;20044;-65
2022/09/02 03:11:21;;;;;;;8.82;5.97;;;;;;;;;;10330365;28;20044;-66
2022/09/02 03:16:21;;;;;;;5.32;4.82;;;;;;;;;;10327898;28;20056;-65
2022/09/02 03:21:21;;;;;;;7.28;5.10;;;;;;;;;;10344032;28;20052;-65
2022/09/02 03:26:23;;;;;;;8.10;5.93;;;;;;;;;;10326428;28;20036;-65
2022/09/02 03:31:23;;;;;;;11.43;5.93;;;;;;;;;;10326633;28;20049;-66
2022/09/02 03:36:25;;;;;;;9.45;7.00;;;;;;;;;;10340679;28;20417;-66
2022/09/02 03:41:26;;;;;;;5.25;4.57;;;;;;;;;;10331721;28;20040;-66
2022/09/02 03:46:26;;;;;;;9.27;5.75;;;;;;;;;;10340859;28;20508;-66
2022/09/02 03:51:26;;;;;;;6.50;5.28;;;;;;;;;;10314685;28;20065;-65
2022/09/02 03:56:26;;;;;;;8.52;5.43;;;;;;;;;;10307349;28;20095;-65
2022/09/02 04:01:26;;;;;;;22.77;18.88;;;;;;;;;;10280407;28;20398;-66
2022/09/02 04:06:32;;;;;;;14.50;5.50;;;;;;;;;;10280174;28;20509;-65
2022/09/02 10:33:25;;;;;;;11.68;3.47;;;;;;;;;;10317715;28;20064;-65
2022/09/02 10:38:33;;;;;;;9.48;3.90;;;;;;;;;;10287331;28;20179;-65
2022/09/02 10:43:38;;;;;;;6.97;4.75;;;;;;;;;;10272929;28;20045;-66
2022/09/02 10:48:44;;;;;;;13.55;4.13;;;;;;;;;;10264332;28;20144;-66
2022/09/02 10:53:54;;;;;;;10.40;4.40;;;;;;;;;;10260596;28;20083;-66
2022/09/02 10:58:55;;;;;;;11.55;4.00;;;;;;;;;;10264235;28;20113;-66
2022/09/02 11:04:02;;;;;;;12.40;3.75;;;;;;;;;;10266673;28;20069;-65
2022/09/02 11:09:02;;;;;;;11.27;3.97;;;;;;;;;;10265274;28;20076;-66
2022/09/02 11:14:02;;;;;;;13.15;4.40;;;;;;;;;;10265542;28;20048;-66
2022/09/02 11:19:05;;;;;;;9.10;3.75;;;;;;;;;;10265138;28;20521;-66
2022/09/02 11:24:06;;;;;;;8.40;3.20;;;;;;;;;;10264567;28;20561;-67
2022/09/02 11:29:09;;;;;;;13.98;3.42;;;;;;;;;;10263606;28;20486;-66
2022/09/02 11:34:14;;;;;;;8.75;3.25;;;;;;;;;;10293233;28;20560;-67
2022/09/02 11:39:15;;;;;;;5.63;3.10;;;;;;;;;;10303802;28;20083;-66
2022/09/02 11:44:50;;;;;;;10.82;3.90;;;;;;;;;;10298916;28;20075;-66
2022/09/02 11:50:03;;;;;;;11.30;3.42;;;;;;;;;;10302193;28;20079;-66
2022/09/02 11:55:08;;;;;;;12.13;4.13;;;;;;;;;;10285304;28;20045;-66
2022/09/02 12:00:24;;;;;;;7.93;2.72;;;;;;;;;;10317180;28;20521;-67
2022/09/02 12:05:41;;;;;;;10.15;3.95;;;;;;;;;;10314678;28;20087;-66
2022/09/02 12:11:00;;;;;;;12.13;3.47;;;;;;;;;;10304543;28;20678;-66
2022/09/02 12:16:14;;;;;;;8.00;3.90;;;;;;;;;;10300801;28;20539;-66
2022/09/02 12:21:13;;;;;;;8.27;2.70;;;;;;;;;;10301209;28;20080;-66
2022/09/02 12:26:22;;;;;;;9.30;2.50;;;;;;;;;;10302518;28;20075;-67
2022/09/02 12:31:41;;;;;;;4.80;3.30;;;;;;;;;;10301370;28;20079;-66
2022/09/02 12:36:46;;;;;;;9.02;7.15;;;;;;;;;;10299784;28;20084;-66
2022/09/02 12:41:51;;;;;;;12.88;10.63;;;;;;;;;;10298047;28;20073;-67
2022/09/02 12:46:57;;;;;;;10.07;6.03;;;;;;;;;;10297566;28;20070;-66
2022/09/02 12:51:57;;;;;;;10.15;5.70;;;;;;;;;;10297555;28;20075;-66
2022/09/02 12:56:56;;;;;;;9.52;6.95;;;;;;;;;;10300495;28;20069;-66
2022/09/02 13:02:00;;;;;;;17.17;4.97;;;;;;;;;;10299176;28;20069;-67
2022/09/02 13:06:58;;;;;;;;;;;;;;;;;;10301602;28;20045;-66
2022/09/02 13:12:07;;;;;;;8.93;4.60;;;;;;;;;;10300812;28;19967;-65
2022/09/02 13:17:15;;;;;;;20.02;8.68;;;;;;;;;;10300613;28;20064;-63
2022/09/02 13:22:48;;;;;;;21.35;8.30;;;;;;;;;;10300647;28;20486;-67
2022/09/02 13:28:01;;;;;;;11.43;6.13;;;;;;;;;;10256955;28;20455;-67
2022/09/02 13:33:04;;;;;;;13.80;6.25;;;;;;;;;;10252958;28;20065;-65
2022/09/02 13:38:02;;;;;;;10.88;5.97;;;;;;;;;;10297842;28;20104;-66
2022/09/02 13:43:01;;;;;;;10.52;5.40;;;;;;;;;;10298720;28;20070;-66
2022/09/02 13:48:05;;;;;;;10.35;5.97;;;;;;;;;;10307070;28;20075;-66
2022/09/02 13:53:06;;;;;;;9.70;5.95;;;;;;;;;;10307690;28;20053;-66
2022/09/02 13:58:31;;;;;;;16.15;9.68;;;;;;;;;;10305934;28;20045;-66
2022/09/02 14:03:32;;;;;;;15.90;9.93;;;;;;;;;;10306259;28;20060;-67
2022/09/02 14:08:31;;;;;;;14.05;6.70;;;;;;;;;;10306597;28;20095;-67
2022/09/02 14:13:29;;;;;;;15.25;10.57;;;;;;;;;;10303827;28;20045;-67
2022/09/02 14:18:32;;;;;;;10.95;6.45;;;;;;;;;;10301949;28;20040;-67
2022/09/02 14:23:32;;;;;;;8.25;5.10;;;;;;;;;;10318000;28;20091;-67
2022/09/02 14:28:31;;;;;;;14.77;5.97;;;;;;;;;;10321002;28;20070;-67
2022/09/02 14:33:42;;;;;;;10.88;6.00;;;;;;;;;;10301397;28;20080;-65
2022/09/02 14:38:50;;;;;;;14.98;8.80;;;;;;;;;;10302801;28;20068;-65
2022/09/02 14:43:49;;;;;;;7.70;5.57;;;;;;;;;;10305069;28;20076;-65
2022/09/02 14:48:52;;;;;;;5.40;4.35;;;;;;;;;;10305204;28;20068;-67
2022/09/02 14:53:50;;;;;;;8.13;5.30;;;;;;;;;;10304422;28;20084;-66
2022/09/02 14:58:48;;;;;;;17.27;15.57;;;;;;;;;;10305990;28;20075;-66
2022/09/02 15:03:49;;;;;;;12.85;8.13;;;;;;;;;;10304548;28;20076;-65
2022/09/02 15:08:49;;;;;;;13.13;10.23;;;;;;;;;;10305579;28;20075;-66
2022/09/02 15:13:47;;;;;;;13.10;7.57;;;;;;;;;;10305285;28;20068;-66
2022/09/02 15:18:45;;;;;;;11.10;6.93;;;;;;;;;;10303892;28;20537;-65
2022/09/02 15:23:44;;;;;;;11.38;8.07;;;;;;;;;;10303892;28;20528;-65
2022/09/02 15:28:49;;;;;;;13.30;6.35;;;;;;;;;;10286725;28;20071;-66
2022/09/02 15:33:50;;;;;;;9.88;7.28;;;;;;;;;;10301702;28;20077;-66
2022/09/02 15:38:49;;;;;;;11.38;6.57;;;;;;;;;;10302867;28;20072;-65
2022/09/02 15:43:48;;;;;;;13.35;5.93;;;;;;;;;;10302379;28;20470;-66
2022/09/02 15:48:48;;;;;;;7.72;5.10;;;;;;;;;;10302992;28;20072;-66
2022/09/02 15:53:47;;;;;;;9.20;5.57;;;;;;;;;;10303728;28;20068;-69
2022/09/02 15:58:46;;;;;;;6.88;5.15;;;;;;;;;;10303415;28;20064;-69
2022/09/02 16:03:44;;;;;;;10.85;5.70;;;;;;;;;;10302828;28;20075;-69
2022/09/02 16:08:44;;;;;;;12.63;6.95;;;;;;;;;;10300218;28;20095;-68
2022/09/02 16:13:42;;;;;;;8.15;5.93;;;;;;;;;;10299218;28;20086;-70
2022/09/02 16:18:41;;;;;;;6.90;4.10;;;;;;;;;;10302111;28;20072;-69
2022/09/02 16:23:40;;;;;;;7.70;3.83;;;;;;;;;;10298459;28;20064;-68
2022/09/02 16:28:40;;;;;;;4.70;3.42;;;;;;;;;;10296784;28;20056;-69
2022/09/02 16:33:40;;;;;;;4.10;3.08;;;;;;;;;;10299149;28;20525;-69
2022/09/02 16:38:38;;;;;;;4.82;3.13;;;;;;;;;;10314057;28;20036;-70
2022/09/02 16:43:37;;;;;;;6.22;4.07;;;;;;;;;;10301629;28;20387;-69
2022/09/02 16:48:36;;;;;;;6.70;3.70;;;;;;;;;;10289954;28;20079;-69
2022/09/02 16:53:35;;;;;;;6.53;3.28;;;;;;;;;;10292111;28;20067;-69
2022/09/02 16:58:34;;;;;;;4.15;2.80;;;;;;;;;;10296267;28;20464;-69
2022/09/02 17:03:32;;;;;;;4.40;3.40;;;;;;;;;;10307930;28;20071;-69
2022/09/02 17:08:32;;;;;;;5.40;3.03;;;;;;;;;;10304724;28;20071;-70
2022/09/02 17:13:30;;;;;;;3.80;2.60;;;;;;;;;;10303866;28;20071;-70
2022/09/02 17:18:28;;;;;;;4.07;2.90;;;;;;;;;;10305667;28;20060;-68
2022/09/02 17:23:26;;;;;;;3.50;2.40;;;;;;;;;;10315855;28;20079;-69
2022/09/02 17:28:26;;;;;;;2.40;2.08;;;;;;;;;;10313532;28;20580;-69
2022/09/02 17:33:24;;;;;;;2.35;2.10;;;;;;;;;;10310804;28;20076;-69
2022/09/02 17:38:23;;;;;;;3.50;2.20;;;;;;;;;;10308212;28;20076;-69
2022/09/02 17:43:26;;;;;;;3.22;2.30;;;;;;;;;;10308362;28;20060;-70
2022/09/02 17:48:25;;;;;;;3.20;2.63;;;;;;;;;;10314643;28;20072;-68
2022/09/02 17:53:43;;;;;;;3.75;2.97;;;;;;;;;;10312439;28;20076;-68
2022/09/02 17:58:47;;;;;;;4.10;3.38;;;;;;;;;;10308988;28;20060;-69
2022/09/02 18:03:58;;;;;;;3.50;2.75;;;;;;;;;;10306615;28;20071;-68
2022/09/02 18:08:58;;;;;;;3.63;2.65;;;;;;;;;;10306152;28;20067;-70
2022/09/02 18:14:05;;;;;;;4.47;2.72;;;;;;;;;;10291618;28;20067;-70
2022/09/02 18:19:10;;;;;;;5.80;4.00;;;;;;;;;;10310423;28;20067;-69
2022/09/02 18:24:14;;;;;;;3.88;3.47;;;;;;;;;;10309594;28;20068;-69
2022/09/02 18:29:20;;;;;;;5.32;4.03;;;;;;;;;;10308623;28;20454;-67
2022/09/02 18:34:33;;;;;;;6.63;3.53;;;;;;;;;;10305868;28;20076;-68
2022/09/02 18:39:39;;;;;;;8.77;4.15;;;;;;;;;;10311535;28;20079;-68
2022/09/02 18:44:41;;;;;;;4.97;4.07;;;;;;;;;;10307776;28;20087;-69
2022/09/02 18:49:41;;;;;;;5.82;4.07;;;;;;;;;;10316693;28;20075;-68
2022/09/02 18:54:44;;;;;;;6.03;4.65;;;;;;;;;;10310867;28;20071;-69
2022/09/02 18:59:45;;;;;;;7.78;6.13;;;;;;;;;;10311243;28;20076;-69
2022/09/02 19:04:44;;;;;;;12.82;8.20;;;;;;;;;;10311838;28;20068;-68
2022/09/02 19:09:42;;;;;;;11.55;8.48;;;;;;;;;;10310801;28;20086;-68
2022/09/02 19:14:40;;;;;;;7.53;5.80;;;;;;;;;;10310826;28;20079;-68
2022/09/02 19:19:40;;;;;;;5.93;4.38;;;;;;;;;;10308007;28;20086;-68
2022/09/02 19:24:41;;;;;;;5.30;4.30;;;;;;;;;;10307139;28;20079;-69
2022/09/02 19:29:41;;;;;;;8.60;4.90;;;;;;;;;;10303557;28;20075;-68
2022/09/02 19:34:42;;;;;;;6.15;4.50;;;;;;;;;;10302199;28;20064;-68
2022/09/02 19:39:41;;;;;;;8.00;4.75;;;;;;;;;;10316496;28;20120;-68
2022/09/02 19:44:39;;;;;;;7.35;4.75;;;;;;;;;;10315944;28;20076;-70
2022/09/02 19:49:38;;;;;;;8.35;5.40;;;;;;;;;;10315848;28;20106;-69
2022/09/02 19:54:37;;;;;;;8.75;5.32;;;;;;;;;;10309524;28;20067;-70
2022/09/02 19:59:36;;;;;;;11.40;4.95;;;;;;;;;;10309444;28;20075;-69
2022/09/02 20:04:34;;;;;;;10.60;4.47;;;;;;;;;;10308334;28;20513;-68
2022/09/02 20:09:32;;;;;;;9.68;5.20;;;;;;;;;;10307498;28;20373;-69
2022/09/02 20:14:33;;;;;;;6.93;3.55;;;;;;;;;;10308259;28;20072;-68
2022/09/02 20:19:32;;;;;;;5.85;4.00;;;;;;;;;;10306937;28;20072;-69
2022/09/02 20:24:31;;;;;;;6.97;4.07;;;;;;;;;;10307040;28;20071;-68
2022/09/02 20:29:40;;;;;;;6.82;4.55;;;;;;;;;;10307806;28;20075;-69
2022/09/02 20:34:49;;;;;;;5.68;4.20;;;;;;;;;;10306175;28;20075;-68
2022/09/02 20:40:05;;;;;;;9.45;3.88;;;;;;;;;;10307796;28;20076;-69
2022/09/02 20:45:07;;;;;;;6.88;3.67;;;;;;;;;;10284869;28;20076;-69
2022/09/02 20:50:15;;;;;;;10.05;4.05;;;;;;;;;;10305974;28;20064;-69
2022/09/02 20:55:17;;;;;;;5.22;3.50;;;;;;;;;;10308730;28;20036;-68
2022/09/02 21:00:19;;;;;;;7.13;3.65;;;;;;;;;;10308894;28;20071;-67
2022/09/02 21:05:19;;;;;;;6.25;3.60;;;;;;;;;;10307165;28;20076;-67
2022/09/02 21:10:22;;;;;;;7.00;3.33;;;;;;;;;;10308585;28;20040;-68
2022/09/02 21:15:27;;;;;;;8.27;3.47;;;;;;;;;;10308622;28;20064;-69
2022/09/02 21:20:42;;;;;;;4.53;3.70;;;;;;;;;;10306020;28;20075;-69
2022/09/02 21:25:46;;;;;;;6.25;4.20;;;;;;;;;;10306220;28;20068;-69
2022/09/02 21:30:44;;;;;;;;;;;;;;;;;;10307025;28;20083;-69
2022/09/02 21:35:45;;;;;;;5.00;3.42;;;;;;;;;;10308851;28;19963;-70
2022/09/02 21:40:50;;;;;;;4.80;3.38;;;;;;;;;;10304242;28;20072;-69
2022/09/02 21:45:53;;;;;;;4.85;3.80;;;;;;;;;;10302307;28;20145;-69
2022/09/02 21:50:57;;;;;;;7.75;3.08;;;;;;;;;;10305958;28;20079;-69
2022/09/02 21:55:59;;;;;;;7.05;3.05;;;;;;;;;;10303001;28;20069;-69
2022/09/02 22:00:59;;;;;;;5.63;2.92;;;;;;;;;;10304555;28;20493;-70
2022/09/02 22:06:04;;;;;;;6.20;3.72;;;;;;;;;;10309488;28;20069;-70
2022/09/02 22:11:08;;;;;;;6.30;3.30;;;;;;;;;;10314994;28;20593;-69
2022/09/02 22:16:15;;;;;;;7.20;3.15;;;;;;;;;;10311635;28;20069;-69
2022/09/02 22:21:18;;;;;;;7.32;2.90;;;;;;;;;;10312952;28;20072;-70
2022/09/02 22:26:21;;;;;;;4.90;2.70;;;;;;;;;;10309850;28;20069;-70
2022/09/02 22:31:24;;;;;;;6.53;2.70;;;;;;;;;;10306914;28;20037;-70
2022/09/02 22:36:29;;;;;;;7.13;3.20;;;;;;;;;;10306984;28;20066;-69
2022/09/02 22:41:30;;;;;;;5.40;2.72;;;;;;;;;;10307372;28;20434;-68
2022/09/02 22:57:05;;;;;;;3.45;2.42;;;;;;;;;;10304361;28;20072;-69
2022/09/02 23:02:14;;;;;;;3.03;2.58;;;;;;;;;;10303158;28;20069;-68
2022/09/02 23:07:14;;;;;;;3.20;2.10;;;;;;;;;;10301971;28;20099;-69
2022/09/02 23:12:25;;;;;;;6.47;3.55;;;;;;;;;;10315305;28;20067;-69
2022/09/02 23:17:32;;;;;;;3.17;2.50;;;;;;;;;;10318415;28;20061;-69
2022/09/02 23:22:36;;;;;;;3.70;2.22;;;;;;;;;;10318475;28;20083;-68
2022/09/02 23:27:43;;;;;;;2.95;2.40;;;;;;;;;;10297838;28;20481;-68
2022/09/02 23:32:42;;;;;;;;;;;;;;;;;;10317550;28;20059;-69
2022/09/02 23:37:47;;;;;;;4.57;2.95;;;;;;;;;;10317638;28;19956;-69
2022/09/02 23:42:46;;;;;;;3.83;3.13;;;;;;;;;;10299032;28;20597;-68
2022/09/02 23:47:48;;;;;;;7.40;3.05;;;;;;;;;;10301452;28;20037;-69
2022/09/02 23:52:55;;;;;;;4.07;2.83;;;;;;;;;;10301355;28;20073;-68
2022/09/02 23:57:59;;;;;;;4.30;2.80;;;;;;;;;;10295274;28;20060;-68
